Dame De Poisson — FGG2707 — position and weather

sailwx.info

Track history (hours):
 
Tides and Currents Weather Stations Pressure Air Temp Water Temp Dewpoint Dewpoint Depression Visibility Wind Speed Wind Dir Waves Ship Positions

Dame De Poisson

Last reported at 2017-Nov-15 10:30 UTC. Time now 2017-Nov-21 17:44 UTC.
Position N 47°36' W 003°01'.

Length 10 m.

Type: Fishing. MMSI: 227784760.

Date/timePositionNaut miles runAvg speedWind from/ knotsBaromVisibWave heightAir tempDewpointWater temp
2017-Nov-15 10:30N 47°36' W 003°01'4 7.4
2017-Nov-15 10:00N 47°33' W 002°58'4 8.2
2017-Nov-15 09:30N 47°31' W 002°53'1 3.0
2017-Nov-15 09:00N 47°30' W 002°51'1 1.6
2017-Nov-15 08:31N 47°29' W 002°51'1 2.5
2017-Nov-15 08:00N 47°30' W 002°51'1 2.9
2017-Nov-15 07:30N 47°31' W 002°52'3 5.8
2017-Nov-15 07:00N 47°31' W 002°57'1 1.4
2017-Nov-15 06:30N 47°32' W 002°58'1 1.4
2017-Nov-15 06:00N 47°32' W 002°58'1 1.1
2017-Nov-15 05:30N 47°33' W 002°59'0 0.3
2017-Nov-15 04:58N 47°33' W 002°59'1 2.3
2017-Nov-15 04:31N 47°33' W 002°60'2 0.1
2017-Nov-14 12:16N 47°36' W 003°01'2 6.1
2017-Nov-14 11:59N 47°34' W 003°01'2 3.8
2017-Nov-14 11:30N 47°33' W 002°59'1 2.2
2017-Nov-14 11:00N 47°32' W 002°57'3 6.1
2017-Nov-14 10:30N 47°32' W 002°53'2 3.9
2017-Nov-14 09:57N 47°30' W 002°51'1 1.8
2017-Nov-14 09:30N 47°29' W 002°51'2 4.9
2017-Nov-14 09:00N 47°31' W 002°53'3 5.2
2017-Nov-14 08:30N 47°32' W 002°57'0 0.2
2017-Nov-14 08:00N 47°32' W 002°57'0 0.9
2017-Nov-14 07:30N 47°31' W 002°57'1 1.5
2017-Nov-14 07:00N 47°32' W 002°57'1 1.6
2017-Nov-14 06:29N 47°32' W 002°59'0 0.7
2017-Nov-14 06:00N 47°32' W 002°58'0 0.4
2017-Nov-14 05:30N 47°32' W 002°58'1 1.7
2017-Nov-14 05:00N 47°33' W 002°59'1 2.1
2017-Nov-14 04:31N 47°33' W 002°60'2 0.1
2017-Nov-12 12:32N 47°36' W 003°01'0 6.0
2017-Nov-12 12:30N 47°35' W 003°01'2 4.4
2017-Nov-12 12:00N 47°34' W 002°60'1 2.4
2017-Nov-12 11:30N 47°33' W 002°58'1 1.4
2017-Nov-12 11:00N 47°32' W 002°58'0 0.9
2017-Nov-12 10:30N 47°33' W 002°57'1 1.0
2017-Nov-12 09:59N 47°32' W 002°58'1 1.6
2017-Nov-12 09:30N 47°32' W 002°57'1 1.6
2017-Nov-12 09:00N 47°32' W 002°56'0 0.7
2017-Nov-12 08:30N 47°32' W 002°56'1 1.5
2017-Nov-12 08:00N 47°32' W 002°57'1 2.0
2017-Nov-12 07:29N 47°33' W 002°58'2 3.6
2017-Nov-12 07:00N 47°33' W 003°00'2 3.1
2017-Nov-12 06:30N 47°34' W 003°02'2 0.1
2017-Nov-11 16:14N 47°35' W 003°01'3 7.6
2017-Nov-11 15:53N 47°33' W 002°60'2 4.9
2017-Nov-11 15:26N 47°32' W 002°57'2 3.2
2017-Nov-11 14:54N 47°31' W 002°54'1 1.8
2017-Nov-11 14:29N 47°32' W 002°56'3 6.9
2017-Nov-11 13:59N 47°33' W 003°00'1 1.6
2017-Nov-11 13:30N 47°34' W 003°01'2 0.5
2017-Nov-11 09:37N 47°35' W 003°01'0 0.1
2017-Nov-11 09:30N 47°35' W 003°01'0 0.0
2017-Nov-11 09:00N 47°35' W 003°01'3 5.6
2017-Nov-11 08:30N 47°33' W 002°59'1 2.1
2017-Nov-11 08:00N 47°33' W 002°58'1 2.9
2017-Nov-11 07:30N 47°34' W 002°59'0 0.3
2017-Nov-11 07:00N 47°33' W 002°59'0 0.8
2017-Nov-11 06:26N 47°34' W 002°59'1 2.0
2017-Nov-11 06:00N 47°34' W 003°00'2 0.2
2017-Nov-10 19:13N 47°36' W 003°01'1 4.6
2017-Nov-10 19:01N 47°35' W 003°01'3 6.0
2017-Nov-10 18:30N 47°33' W 002°58'1 2.5
2017-Nov-10 18:00N 47°33' W 002°59'0 0.5
2017-Nov-10 17:29N 47°33' W 002°59'2 3.4
2017-Nov-10 17:00N 47°34' W 003°01'1 0.2
2017-Nov-10 09:29N 47°36' W 003°01'3 5.8
2017-Nov-10 09:01N 47°33' W 002°60'1 2.6
2017-Nov-10 08:31N 47°32' W 002°58'0 0.5
2017-Nov-10 08:00N 47°32' W 002°58'0 0.7
2017-Nov-10 07:29N 47°32' W 002°58'0 0.8
2017-Nov-10 06:59N 47°33' W 002°58'0 0.6
2017-Nov-10 06:30N 47°33' W 002°58'1 1.3
2017-Nov-10 06:00N 47°33' W 002°59'0 0.8
2017-Nov-10 05:30N 47°34' W 002°59'2 3.8
2017-Nov-10 05:00N 47°35' W 003°01'1 0.1
2017-Nov-09 18:44N 47°36' W 003°01'2 6.8
2017-Nov-09 18:29N 47°34' W 003°01'2 4.8
2017-Nov-09 18:00N 47°32' W 002°58'0 0.6
2017-Nov-09 17:30N 47°32' W 002°58'0 0.6
2017-Nov-09 17:00N 47°33' W 002°58'1 1.7
2017-Nov-09 16:30N 47°33' W 002°59'2 4.2
2017-Nov-09 16:00N 47°35' W 003°01'1 0.1
2017-Nov-09 09:59N 47°36' W 003°01'2 4.8
2017-Nov-09 09:30N 47°33' W 003°00'2 3.9
2017-Nov-09 08:58N 47°32' W 002°58'0 0.9
2017-Nov-09 08:30N 47°32' W 002°57'1 1.3
2017-Nov-09 07:56N 47°32' W 002°58'0 0.8
2017-Nov-09 07:30N 47°32' W 002°58'0 0.7
2017-Nov-09 06:59N 47°32' W 002°58'1 2.1
2017-Nov-09 06:29N 47°33' W 002°58'1 1.3
2017-Nov-09 05:57N 47°33' W 002°59'1 2.7
2017-Nov-09 05:30N 47°34' W 003°01'0 0.9
2017-Nov-09 04:59N 47°34' W 003°01'1 2.1
2017-Nov-09 04:30N 47°35' W 003°01'1 0.1
2017-Nov-08 19:00N 47°36' W 003°01'1 2.9
2017-Nov-08 18:30N 47°34' W 003°01'1 1.3
2017-Nov-08 17:59N 47°34' W 003°01'2 3.7
2017-Nov-08 17:31N 47°33' W 002°58'1 2.1
2017-Nov-08 17:01N 47°32' W 002°58'0 0.7
2017-Nov-08 16:31N 47°32' W 002°58'1 2.9
2017-Nov-08 16:01N 47°33' W 002°60'3 5.1
2017-Nov-08 15:31N 47°35' W 003°01'  
Track history (hours):
 
Tides and Currents Weather Stations Pressure Air Temp Water Temp Dewpoint Dewpoint Depression Visibility Wind Speed Wind Dir Waves Ship Positions

Dame De Poisson

Last reported at 2017-Nov-15 10:30 UTC. Time now 2017-Nov-21 17:44 UTC.
Position N 47°36' W 003°01'.

Length 10 m.

Type: Fishing. MMSI: 227784760.

Date/timePositionNaut miles runAvg speedWind from/ knotsBaromVisibWave heightAir tempDewpointWater temp
2017-Nov-15 10:30N 47°36' W 003°01'4 7.4
2017-Nov-15 10:00N 47°33' W 002°58'4 8.2
2017-Nov-15 09:30N 47°31' W 002°53'1 3.0
2017-Nov-15 09:00N 47°30' W 002°51'1 1.6
2017-Nov-15 08:31N 47°29' W 002°51'1 2.5
2017-Nov-15 08:00N 47°30' W 002°51'1 2.9
2017-Nov-15 07:30N 47°31' W 002°52'3 5.8
2017-Nov-15 07:00N 47°31' W 002°57'1 1.4
2017-Nov-15 06:30N 47°32' W 002°58'1 1.4
2017-Nov-15 06:00N 47°32' W 002°58'1 1.1
2017-Nov-15 05:30N 47°33' W 002°59'0 0.3
2017-Nov-15 04:58N 47°33' W 002°59'1 2.3
2017-Nov-15 04:31N 47°33' W 002°60'2 0.1
2017-Nov-14 12:16N 47°36' W 003°01'2 6.1
2017-Nov-14 11:59N 47°34' W 003°01'2 3.8
2017-Nov-14 11:30N 47°33' W 002°59'1 2.2
2017-Nov-14 11:00N 47°32' W 002°57'3 6.1
2017-Nov-14 10:30N 47°32' W 002°53'2 3.9
2017-Nov-14 09:57N 47°30' W 002°51'1 1.8
2017-Nov-14 09:30N 47°29' W 002°51'2 4.9
2017-Nov-14 09:00N 47°31' W 002°53'3 5.2
2017-Nov-14 08:30N 47°32' W 002°57'0 0.2
2017-Nov-14 08:00N 47°32' W 002°57'0 0.9
2017-Nov-14 07:30N 47°31' W 002°57'1 1.5
2017-Nov-14 07:00N 47°32' W 002°57'1 1.6
2017-Nov-14 06:29N 47°32' W 002°59'0 0.7
2017-Nov-14 06:00N 47°32' W 002°58'0 0.4
2017-Nov-14 05:30N 47°32' W 002°58'1 1.7
2017-Nov-14 05:00N 47°33' W 002°59'1 2.1
2017-Nov-14 04:31N 47°33' W 002°60'2 0.1
2017-Nov-12 12:32N 47°36' W 003°01'0 6.0
2017-Nov-12 12:30N 47°35' W 003°01'2 4.4
2017-Nov-12 12:00N 47°34' W 002°60'1 2.4
2017-Nov-12 11:30N 47°33' W 002°58'1 1.4
2017-Nov-12 11:00N 47°32' W 002°58'0 0.9
2017-Nov-12 10:30N 47°33' W 002°57'1 1.0
2017-Nov-12 09:59N 47°32' W 002°58'1 1.6
2017-Nov-12 09:30N 47°32' W 002°57'1 1.6
2017-Nov-12 09:00N 47°32' W 002°56'0 0.7
2017-Nov-12 08:30N 47°32' W 002°56'1 1.5
2017-Nov-12 08:00N 47°32' W 002°57'1 2.0
2017-Nov-12 07:29N 47°33' W 002°58'2 3.6
2017-Nov-12 07:00N 47°33' W 003°00'2 3.1
2017-Nov-12 06:30N 47°34' W 003°02'2 0.1
2017-Nov-11 16:14N 47°35' W 003°01'3 7.6
2017-Nov-11 15:53N 47°33' W 002°60'2 4.9
2017-Nov-11 15:26N 47°32' W 002°57'2 3.2
2017-Nov-11 14:54N 47°31' W 002°54'1 1.8
2017-Nov-11 14:29N 47°32' W 002°56'3 6.9
2017-Nov-11 13:59N 47°33' W 003°00'1 1.6
2017-Nov-11 13:30N 47°34' W 003°01'2 0.5
2017-Nov-11 09:37N 47°35' W 003°01'0 0.1
2017-Nov-11 09:30N 47°35' W 003°01'0 0.0
2017-Nov-11 09:00N 47°35' W 003°01'3 5.6
2017-Nov-11 08:30N 47°33' W 002°59'1 2.1
2017-Nov-11 08:00N 47°33' W 002°58'1 2.9
2017-Nov-11 07:30N 47°34' W 002°59'0 0.3
2017-Nov-11 07:00N 47°33' W 002°59'0 0.8
2017-Nov-11 06:26N 47°34' W 002°59'1 2.0
2017-Nov-11 06:00N 47°34' W 003°00'2 0.2
2017-Nov-10 19:13N 47°36' W 003°01'1 4.6
2017-Nov-10 19:01N 47°35' W 003°01'3 6.0
2017-Nov-10 18:30N 47°33' W 002°58'1 2.5
2017-Nov-10 18:00N 47°33' W 002°59'0 0.5
2017-Nov-10 17:29N 47°33' W 002°59'2 3.4
2017-Nov-10 17:00N 47°34' W 003°01'1 0.2
2017-Nov-10 09:29N 47°36' W 003°01'3 5.8
2017-Nov-10 09:01N 47°33' W 002°60'1 2.6
2017-Nov-10 08:31N 47°32' W 002°58'0 0.5
2017-Nov-10 08:00N 47°32' W 002°58'0 0.7
2017-Nov-10 07:29N 47°32' W 002°58'0 0.8
2017-Nov-10 06:59N 47°33' W 002°58'0 0.6
2017-Nov-10 06:30N 47°33' W 002°58'1 1.3
2017-Nov-10 06:00N 47°33' W 002°59'0 0.8
2017-Nov-10 05:30N 47°34' W 002°59'2 3.8
2017-Nov-10 05:00N 47°35' W 003°01'1 0.1
2017-Nov-09 18:44N 47°36' W 003°01'2 6.8
2017-Nov-09 18:29N 47°34' W 003°01'2 4.8
2017-Nov-09 18:00N 47°32' W 002°58'0 0.6
2017-Nov-09 17:30N 47°32' W 002°58'0 0.6
2017-Nov-09 17:00N 47°33' W 002°58'1 1.7
2017-Nov-09 16:30N 47°33' W 002°59'2 4.2
2017-Nov-09 16:00N 47°35' W 003°01'1 0.1
2017-Nov-09 09:59N 47°36' W 003°01'2 4.8
2017-Nov-09 09:30N 47°33' W 003°00'2 3.9
2017-Nov-09 08:58N 47°32' W 002°58'0 0.9
2017-Nov-09 08:30N 47°32' W 002°57'1 1.3
2017-Nov-09 07:56N 47°32' W 002°58'0 0.8
2017-Nov-09 07:30N 47°32' W 002°58'0 0.7
2017-Nov-09 06:59N 47°32' W 002°58'1 2.1
2017-Nov-09 06:29N 47°33' W 002°58'1 1.3
2017-Nov-09 05:57N 47°33' W 002°59'1 2.7
2017-Nov-09 05:30N 47°34' W 003°01'0 0.9
2017-Nov-09 04:59N 47°34' W 003°01'1 2.1
2017-Nov-09 04:30N 47°35' W 003°01'1 0.1
2017-Nov-08 19:00N 47°36' W 003°01'1 2.9
2017-Nov-08 18:30N 47°34' W 003°01'1 1.3
2017-Nov-08 17:59N 47°34' W 003°01'2 3.7
2017-Nov-08 17:31N 47°33' W 002°58'1 2.1
2017-Nov-08 17:01N 47°32' W 002°58'0 0.7
2017-Nov-08 16:31N 47°32' W 002°58'1 2.9
2017-Nov-08 16:01N 47°33' W 002°60'3 5.1
2017-Nov-08 15:31N 47°35' W 003°01'  

Dump ship's entire track history